• Join FlightAware (Why Join?)
  • Login
  • US Flag 
07:20AM EDT


 

Airport Tracker/Info


-or-


 

Live Flight TrackerFlight Track Log ✈ CPZ5746 ✈ 15-May-2013 ✈ KBNA - KDTW

Flight Track Log - Related Links

Times and Time Zones

All times are in EDT time to prevent confusion due to time zone crossing. See the CPZ5746 flight status page for this flight to view local times or setup timezone preferences in your user account.

Time Position Orientation Groundspeed Altitude Reporting Facility
EDT Latitude Longitude Course Direction KTS MPH feet Rate Location/Type
05:17PM 36.1167 -86.6833 North 139 160 1,300  Level Nashville TRACON
05:17PM 36.1000 -86.7000 219° Southwest 140 161 1,900 1,440 Climbing Nashville TRACON
05:18PM 36.0833 -86.7500 248° West 199 229 3,200 1,800 Climbing Nashville TRACON
05:19PM 36.0833 -86.8333 270° West 265 305 5,500 2,640 Climbing Nashville TRACON
05:20PM 36.5354 -86.7213 349° North  Level FlightAware Approximate
05:20PM 36.1425 -86.8564 343° North 300 345 8,300  Level Memphis Center
05:21PM 36.6399 -86.7333 North  Level FlightAware Approximate
05:21PM 36.2231 -86.8350 12° North 289 333 11,200  Level Memphis Center
05:22PM 36.7453 -86.7333 North  Level FlightAware Approximate
05:22PM 36.3078 -86.8081 14° North 326 375 13,100  Level Memphis Center
05:23PM 36.4031 -86.7858 11° North 342 394 14,600 1,500 Climbing Memphis Center
05:24PM 36.5044 -86.7583 12° North 356 410 16,100 1,740 Climbing Memphis Center
05:25PM 36.6100 -86.7353 10° North 374 430 18,100 1,860 Climbing Memphis Center
05:26PM 36.7144 -86.7411 357° North 369 425 19,900 1,920 Climbing Memphis Center
05:27PM 36.8225 -86.7311 North 383 441 22,000 1,560 Climbing Memphis Center
05:28PM 36.9319 -86.6922 16° North 390 449 23,100 1,020 Climbing Memphis Center
05:29PM 37.0472 -86.6506 16° North 409 471 24,100 900 Climbing Memphis Center
05:32PM 37.1624 -86.6070 15° North  Level FlightAware Approximate
05:32PM 37.4356 -86.5128 15° North 458 527 27,100  Level Indianapolis Center
05:33PM 37.5600 -86.4683 16° North 460 529 27,000 -540 Descending Indianapolis Center
05:34PM 37.6778 -86.4250 16° North 442 509 26,000 -1,020 Descending Indianapolis Center
05:35PM 37.7956 -86.3839 15° North 434 499 25,000 -540 Descending Indianapolis Center
05:36PM 37.9264 -86.3372 16° North 458 527 25,000  Level Indianapolis Center
05:38PM 38.0503 -86.2936 15° North 461 531 25,000  Level Indianapolis Center
05:39PM 38.1978 -86.2397 16° North 460 529 25,000  Level Indianapolis Center
05:40PM 38.3208 -86.1947 16° North 460 529 25,000  Level Indianapolis Center
05:41PM 38.4436 -86.1503 16° North 461 531 25,000  Level Indianapolis Center
05:42PM 38.5656 -86.1064 16° North 457 526 25,000  Level Indianapolis Center
05:43PM 38.6869 -86.0617 16° North 455 524 25,000  Level Indianapolis Center
05:44PM 38.8064 -86.0197 15° North 446 513 25,000  Level Indianapolis Center
05:45PM 38.9342 -86.0047 North 439 505 25,000  Level Indianapolis Center
05:46PM 39.0572 -85.9894 North 445 512 25,000  Level Indianapolis Center
05:47PM 39.2044 -85.9694 North 445 512 25,000  Level Indianapolis Center
05:48PM 39.3264 -85.9544 North 444 511 25,000  Level Indianapolis Center
05:49PM 39.4458 -85.9147 14° North 451 519 25,000  Level Indianapolis Center
05:50PM 39.5614 -85.8600 20° North 448 516 25,000  Level Indianapolis Center
05:51PM 39.6928 -85.7992 20° North 421 484 25,000  Level Indianapolis Center
05:52PM 39.7950 -85.7519 20° North 396 456 25,000  Level Indianapolis Center
05:53PM 39.8992 -85.7042 19° North 400 460 25,000  Level Indianapolis Center
05:54PM 40.0028 -85.6550 20° North 399 459 25,000  Level Indianapolis Center
05:55PM 40.1067 -85.6061 20° North 400 460 25,000  Level Indianapolis Center
05:56PM 40.1692 -85.5756 20° North 399 459 25,000  Level Chicago Center
05:57PM 40.2708 -85.5267 20° North 393 452 25,000  Level Chicago Center
05:58PM 40.4064 -85.4622 20° North 432 497 25,000 -540 Level Chicago Center
05:59PM 40.5233 -85.4064 20° North 447 514 24,000 -540 Descending Chicago Center
06:00PM 40.6389 -85.3519 20° North 444 511 24,000 -60 Level Chicago Center
06:01PM 40.7478 -85.2969 21° North 448 516 23,900 -660 Descending Chicago Center
06:02PM 40.8867 -85.2289 20° North 447 514 22,700 -1,080 Descending Chicago Center
06:03PM 40.9967 -85.1658 23° Northeast 438 504 21,700 -840 Descending Chicago Center
06:04PM 41.0917 -85.0667 38° Northeast 437 503 21,000 -360 Descending Chicago Center
06:05PM 41.1856 -84.9650 39° Northeast 438 504 21,000  Level Chicago Center
06:06PM 41.2797 -84.8642 39° Northeast 439 505 21,000  Level Chicago Center
06:07PM 41.3919 -84.7433 39° Northeast 437 503 21,000 -720 Level Chicago Center
06:08PM 41.4847 -84.6433 39° Northeast 434 499 19,600 -1,500 Descending Chicago Center
06:08PM 41.5228 -84.5911 46° Northeast 435 501 18,900 -1,860 Descending Cleveland Center
06:09PM 41.5958 -84.4681 52° Northeast 427 491 17,100 -1,980 Descending Cleveland Center
06:10PM 41.6428 -84.3736 56° Northeast 429 494 15,600 -2,160 Descending Cleveland Center
06:11PM 41.6739 -84.3225 51° Northeast 417 480 14,700 -1,980 Descending Cleveland Center
06:12PM 41.7403 -84.1983 54° Northeast 409 471 12,800 -1,440 Descending Cleveland Center
06:12PM 41.7933 -84.0983 55° Northeast 410 472 12,000 -480 Descending Cleveland Center
06:13PM 41.8486 -83.9953 54° Northeast 377 434 12,000  Level Cleveland Center
06:15PM 41.9144 -83.8872 51° Northeast 334 384 12,000  Level Cleveland Center
06:15PM 41.9606 -83.8058 53° Northeast 330 380 12,000  Level Cleveland Center
06:16PM 42.0106 -83.7300 48° Northeast 299 344 12,000  Level Cleveland Center
06:17PM 42.0625 -83.6569 46° Northeast 276 318 12,000  Level Cleveland Center
06:18PM 42.0797 -83.6356 43° Northeast 272 313 12,000  Level Cleveland Center
06:18PM 42.1203 -83.6011 32° Northeast 260 299 12,000  Level Cleveland Center
06:19PM 42.1842 -83.5536 29° Northeast 255 293 12,000 -600 Level Cleveland Center
06:21PM 42.2606 -83.5011 27° Northeast 247 284 10,800 -1,080 Descending Cleveland Center
06:22PM 42.3158 -83.4586 30° Northeast 223 257 9,700 -1,380 Descending Cleveland Center
06:23PM 42.3814 -83.4194 24° Northeast 231 266 8,000 -1,440 Descending Cleveland Center
06:24PM 42.4386 -83.3828 25° Northeast 224 258 6,800 -1,380 Descending Cleveland Center
06:25PM 42.4589 -83.3161 68° East 234 269 5,200 -1,080 Descending Cleveland Center
06:26PM 42.4206 -83.2608 133° Southeast 182 209 4,700 -540 Descending Cleveland Center